Lochiel, Arizona
Current Conditions -  °F | °C
As of 8:56 AM on Thursday 30 Oct 2014 (Local Time) from KALK Reporting Station
Clear Clear  
Wind Chill: 69°   Ceiling: Unl
Heat Index: 69°   Visibility: 10mi
Dew Point: 39°   Wind: 9mph
Humidity: 33%   Direction: 60°ENE
Pressure: 30.24"   Gusts: NA
Location:  31.4849°N, 110.609°W
Report Text: KALK 301556Z AUTO 06008KT 10SM CLR 21/04 A3024 RMK AO2 SLP163 T02060039 TSNO
Loading
Personal Weather Stations






























Interactive Weather Map
Tropical Storm Tracking
New forecast layout! Learn more

10-Day Weather Forecast

Advertisements
Track Severe Weather on mobile